»·PEaware :: N117AL KCRQ-KSBA

N117AL :: KCRQ-KSBA

FLIGHT INFORMATION

Flight Status: Arrived
Operator: Privately registered:
United States
More flights under this callsign
Pilot: Adam W. (20046)
Aircraft: BOMBARDIER BD-100 CHALLENGER 300
(CL30)
More flights by this aircraft type
Origin: KCRQ McClellan-Palomar
United States
Destination: KSBA Santa Barbara Mun
United States
More flights between these airports :: More routes between these airports
Route: +CWARD2 CWARD AVOLS V208 VTU VTU282 KWANG
File this flight plan on PilotEdge
Remarks: TEC route SANP36R
Altitude:
(Current/Filed)
16,000ft
Speed:
(Current/Filed)
470kts
Departed: 13-Sep-18 09:42 AM
Arrived: 13-Sep-18 10:15 AM
Distance/Time
Traveled:
150nm/0:32
Distance/Time
To Go:
Arrived

Flight Plot

Page will automatically refresh every two minutes.

Flight plan parsing failed; only flown route is shown


Map Options




Map Legend


Flown Route
Filed Route
Departure Airport
Arrival Airport
Navaid (VOR, NDB)
Fix

Horizontal Profiles

Position Reports

Time Latitude Longitude Heading Altitude Ground
Speed
13-Sep-18 09:26 33.125310 -117.282613 349 307ft 0kts
13-Sep-18 09:27 33.125310 -117.282613 349 307ft 0kts
13-Sep-18 09:28 33.125310 -117.282613 349 307ft 0kts
13-Sep-18 09:29 33.125310 -117.282613 349 307ft 0kts
13-Sep-18 09:30 33.125310 -117.282613 348 307ft 0kts
13-Sep-18 09:31 33.125310 -117.282613 348 307ft 0kts
13-Sep-18 09:32 33.125310 -117.282613 348 307ft 0kts
13-Sep-18 09:33 33.125310 -117.282613 348 307ft 0kts
13-Sep-18 09:34 33.125310 -117.282613 348 307ft 0kts
13-Sep-18 09:35 33.125310 -117.282613 348 307ft 0kts
13-Sep-18 09:36 33.125310 -117.282613 348 307ft 0kts
13-Sep-18 09:37 33.125310 -117.282613 348 307ft 0kts
13-Sep-18 09:38 33.125310 -117.282613 348 307ft 0kts
13-Sep-18 09:39 33.126308 -117.283135 349 307ft 13kts
13-Sep-18 09:40 33.127731 -117.278174 79 307ft 29kts
13-Sep-18 09:41 33.128661 -117.272799 50 307ft 0kts
13-Sep-18 09:42 33.128661 -117.272799 50 307ft 0kts
13-Sep-18 09:43 33.129491 -117.272514 261 307ft 8kts
13-Sep-18 09:44 33.120502 -117.319719 256 1702ft 263kts
13-Sep-18 09:45 33.103053 -117.402367 256 2997ft 316kts
13-Sep-18 09:46 33.089168 -117.516318 262 3759ft 302kts
13-Sep-18 09:47 33.077275 -117.615694 261 5850ft 307kts
13-Sep-18 09:48 33.068154 -117.699931 273 8209ft 314kts
13-Sep-18 09:49 33.135518 -117.796886 313 10003ft 352kts
13-Sep-18 09:50 33.200802 -117.856294 339 10007ft 365kts
13-Sep-18 09:51 33.299487 -117.886234 343 10007ft 370kts
13-Sep-18 09:52 33.357694 -117.966277 277 10015ft 342kts
13-Sep-18 09:53 33.361222 -118.080783 268 10021ft 347kts
13-Sep-18 09:54 33.354476 -118.195757 265 10026ft 344kts
13-Sep-18 09:55 33.361041 -118.307819 277 10032ft 336kts
13-Sep-18 09:56 33.379878 -118.416112 302 10022ft 337kts
13-Sep-18 09:57 33.437826 -118.506076 306 10034ft 345kts
13-Sep-18 09:58 33.499010 -118.595514 307 9988ft 349kts
13-Sep-18 09:59 33.560335 -118.683792 307 9992ft 348kts
13-Sep-18 10:00 33.622382 -118.772871 307 9989ft 349kts
13-Sep-18 10:01 33.684623 -118.862312 307 9975ft 350kts
13-Sep-18 10:02 33.746994 -118.952126 307 9965ft 350kts
13-Sep-18 10:03 33.827009 -119.011806 346 9965ft 362kts
13-Sep-18 10:04 33.927186 -119.027711 350 9963ft 364kts
13-Sep-18 10:05 34.028129 -119.039797 351 9963ft 365kts
13-Sep-18 10:06 34.115067 -119.082945 304 9974ft 340kts
13-Sep-18 10:07 34.162863 -119.174185 297 9955ft 315kts
13-Sep-18 10:08 34.204266 -119.266048 294 8349ft 310kts
13-Sep-18 10:09 34.246297 -119.364307 297 5412ft 325kts
13-Sep-18 10:10 34.285483 -119.457777 298 3994ft 300kts
13-Sep-18 10:11 34.324095 -119.549053 298 3984ft 295kts
13-Sep-18 10:12 34.358741 -119.629656 298 3731ft 257kts
13-Sep-18 10:13 34.390242 -119.702078 297 2080ft 222kts
13-Sep-18 10:14 34.416477 -119.758016 305 1755ft 170kts
13-Sep-18 10:15 34.428743 -119.801915 270 555ft 114kts
13-Sep-18 10:16 34.427741 -119.842404 268 19ft 107kts
13-Sep-18 10:17 34.426991 -119.851581 181 17ft 0kts
13-Sep-18 10:18 34.426991 -119.851581 181 17ft 0kts
13-Sep-18 10:19 34.426488 -119.847877 88 17ft 0kts
13-Sep-18 10:20 34.426488 -119.847877 88 17ft 0kts
13-Sep-18 10:21 34.428224 -119.845891 50 17ft 14kts
13-Sep-18 10:22 34.429853 -119.841901 63 17ft 0kts
13-Sep-18 10:23 34.431182 -119.838140 70 17ft 22kts
13-Sep-18 10:24 34.432709 -119.835643 340 17ft 0kts
13-Sep-18 10:25 34.432709 -119.835643 340 17ft 0kts
13-Sep-18 10:26 34.432709 -119.835643 340 17ft 0kts

Navigation Log

Ident Type
Flight plan parsing failed, navigation log unavailable